sensor_id;sensor_type;location;lat;lon;timestamp;pressure;altitude;pressure_sealevel;temperature;humidity
6599;BME280;3335;43.198;27.918;2022-12-07T00:01:28;149765.78;;;10.02;100.00
6599;BME280;3335;43.198;27.918;2022-12-07T00:03:58;149757.00;;;9.98;100.00
6599;BME280;3335;43.198;27.918;2022-12-07T00:06:30;149744.53;;;9.93;100.00
6599;BME280;3335;43.198;27.918;2022-12-07T00:08:57;149755.75;;;9.98;100.00
6599;BME280;3335;43.198;27.918;2022-12-07T00:11:24;149749.53;;;9.95;100.00
6599;BME280;3335;43.198;27.918;2022-12-07T00:13:52;149735.78;;;9.90;100.00
6599;BME280;3335;43.198;27.918;2022-12-07T00:16:21;149733.28;;;9.89;100.00
6599;BME280;3335;43.198;27.918;2022-12-07T00:18:48;149713.34;;;9.81;100.00
6599;BME280;3335;43.198;27.918;2022-12-07T00:21:19;149704.59;;;9.77;100.00
6599;BME280;3335;43.198;27.918;2022-12-07T00:23:48;149687.09;;;9.70;100.00
6599;BME280;3335;43.198;27.918;2022-12-07T00:26:17;149670.91;;;9.63;100.00
6599;BME280;3335;43.198;27.918;2022-12-07T00:28:45;149678.38;;;9.66;100.00
6599;BME280;3335;43.198;27.918;2022-12-07T00:31:14;149655.91;;;9.57;100.00
6599;BME280;3335;43.198;27.918;2022-12-07T00:33:42;149653.41;;;9.56;100.00
6599;BME280;3335;43.198;27.918;2022-12-07T00:36:10;149640.91;;;9.51;100.00
6599;BME280;3335;43.198;27.918;2022-12-07T00:38:39;149633.44;;;9.48;100.00
6599;BME280;3335;43.198;27.918;2022-12-07T00:41:09;149633.44;;;9.48;100.00
6599;BME280;3335;43.198;27.918;2022-12-07T00:43:37;149649.69;;;9.55;100.00
6599;BME280;3335;43.198;27.918;2022-12-07T00:46:04;149648.44;;;9.54;100.00
6599;BME280;3335;43.198;27.918;2022-12-07T00:48:31;149658.41;;;9.58;100.00
6599;BME280;3335;43.198;27.918;2022-12-07T00:50:59;149658.41;;;9.58;100.00
6599;BME280;3335;43.198;27.918;2022-12-07T00:53:27;149650.91;;;9.55;100.00
6599;BME280;3335;43.198;27.918;2022-12-07T00:55:55;149648.44;;;9.54;100.00
6599;BME280;3335;43.198;27.918;2022-12-07T00:58:22;149657.16;;;9.58;100.00
6599;BME280;3335;43.198;27.918;2022-12-07T01:00:50;149664.63;;;9.61;100.00
6599;BME280;3335;43.198;27.918;2022-12-07T01:03:17;149670.91;;;9.63;100.00
6599;BME280;3335;43.198;27.918;2022-12-07T01:05:50;149710.81;;;9.80;100.00
6599;BME280;3335;43.198;27.918;2022-12-07T01:08:18;149702.09;;;9.76;100.00
6599;BME280;3335;43.198;27.918;2022-12-07T01:10:45;149688.34;;;9.71;100.00
6599;BME280;3335;43.198;27.918;2022-12-07T01:13:14;149610.97;;;9.39;100.00
6599;BME280;3335;43.198;27.918;2022-12-07T01:15:41;149687.09;;;9.70;100.00
6599;BME280;3335;43.198;27.918;2022-12-07T01:18:09;149688.34;;;9.71;100.00
6599;BME280;3335;43.198;27.918;2022-12-07T01:20:36;149703.34;;;9.77;100.00
6599;BME280;3335;43.198;27.918;2022-12-07T01:23:03;149703.34;;;9.77;100.00
6599;BME280;3335;43.198;27.918;2022-12-07T01:25:30;149698.34;;;9.75;100.00
6599;BME280;3335;43.198;27.918;2022-12-07T01:27:57;149705.84;;;9.78;100.00
6599;BME280;3335;43.198;27.918;2022-12-07T01:30:26;149613.50;;;9.40;100.00
6599;BME280;3335;43.198;27.918;2022-12-07T01:32:52;149683.38;;;9.69;100.00
6599;BME280;3335;43.198;27.918;2022-12-07T01:35:19;149688.34;;;9.71;100.00
6599;BME280;3335;43.198;27.918;2022-12-07T01:37:46;149662.13;;;9.60;100.00
6599;BME280;3335;43.198;27.918;2022-12-07T01:40:13;149648.44;;;9.54;100.00
6599;BME280;3335;43.198;27.918;2022-12-07T01:42:40;149618.44;;;9.42;100.00
6599;BME280;3335;43.198;27.918;2022-12-07T01:45:42;149622.22;;;9.44;100.00
6599;BME280;3335;43.198;27.918;2022-12-07T01:48:11;149608.47;;;9.38;100.00
6599;BME280;3335;43.198;27.918;2022-12-07T01:50:39;149601.00;;;9.35;100.00
6599;BME280;3335;43.198;27.918;2022-12-07T01:53:09;149617.19;;;9.42;100.00
6599;BME280;3335;43.198;27.918;2022-12-07T01:55:40;149620.97;;;9.43;100.00
6599;BME280;3335;43.198;27.918;2022-12-07T01:58:09;149624.72;;;9.45;100.00
6599;BME280;3335;43.198;27.918;2022-12-07T02:00:38;149650.91;;;9.55;100.00
6599;BME280;3335;43.198;27.918;2022-12-07T02:03:09;149602.25;;;9.36;100.00
6599;BME280;3335;43.198;27.918;2022-12-07T02:05:40;149663.38;;;9.60;100.00
6599;BME280;3335;43.198;27.918;2022-12-07T02:08:07;149689.59;;;9.71;100.00
6599;BME280;3335;43.198;27.918;2022-12-07T02:10:34;149690.88;;;9.72;100.00
6599;BME280;3335;43.198;27.918;2022-12-07T02:13:03;149675.88;;;9.65;100.00
6599;BME280;3335;43.198;27.918;2022-12-07T02:15:39;149700.84;;;9.76;100.00
6599;BME280;3335;43.198;27.918;2022-12-07T02:18:17;149698.34;;;9.75;100.00
6599;BME280;3335;43.198;27.918;2022-12-07T02:20:53;149690.88;;;9.72;100.00
6599;BME280;3335;43.198;27.918;2022-12-07T02:24:02;149688.34;;;9.71;100.00
6599;BME280;3335;43.198;27.918;2022-12-07T02:26:48;149659.66;;;9.59;100.00
6599;BME280;3335;43.198;27.918;2022-12-07T02:29:25;149680.88;;;9.68;100.00
6599;BME280;3335;43.198;27.918;2022-12-07T02:31:59;149680.88;;;9.68;100.00
6599;BME280;3335;43.198;27.918;2022-12-07T02:34:34;149665.88;;;9.61;100.00
6599;BME280;3335;43.198;27.918;2022-12-07T02:37:10;149655.91;;;9.57;100.00
6599;BME280;3335;43.198;27.918;2022-12-07T02:39:43;149625.97;;;9.45;100.00
6599;BME280;3335;43.198;27.918;2022-12-07T02:42:17;149660.91;;;9.59;100.00
6599;BME280;3335;43.198;27.918;2022-12-07T02:44:47;149630.94;;;9.47;100.00
6599;BME280;3335;43.198;27.918;2022-12-07T02:47:16;149624.72;;;9.45;100.00
6599;BME280;3335;43.198;27.918;2022-12-07T02:49:44;149635.94;;;9.49;100.00
6599;BME280;3335;43.198;27.918;2022-12-07T02:52:11;149633.44;;;9.48;100.00
6599;BME280;3335;43.198;27.918;2022-12-07T02:54:38;149635.94;;;9.49;100.00
6599;BME280;3335;43.198;27.918;2022-12-07T02:57:14;149635.94;;;9.49;100.00
6599;BME280;3335;43.198;27.918;2022-12-07T02:59:59;149620.97;;;9.43;100.00
6599;BME280;3335;43.198;27.918;2022-12-07T03:02:34;149615.94;;;9.41;100.00
6599;BME280;3335;43.198;27.918;2022-12-07T03:05:13;149603.47;;;9.36;100.00
6599;BME280;3335;43.198;27.918;2022-12-07T03:07:51;149603.47;;;9.36;100.00
6599;BME280;3335;43.198;27.918;2022-12-07T03:10:24;149613.50;;;9.40;100.00
6599;BME280;3335;43.198;27.918;2022-12-07T03:13:02;149619.72;;;9.43;100.00
6599;BME280;3335;43.198;27.918;2022-12-07T03:15:35;149443.78;;;8.71;100.00
6599;BME280;3335;43.198;27.918;2022-12-07T03:18:07;149608.47;;;9.38;100.00
6599;BME280;3335;43.198;27.918;2022-12-07T03:20:37;149620.97;;;9.43;100.00
6599;BME280;3335;43.198;27.918;2022-12-07T03:23:06;149612.22;;;9.40;100.00
6599;BME280;3335;43.198;27.918;2022-12-07T03:25:35;149441.25;;;8.70;100.00
6599;BME280;3335;43.198;27.918;2022-12-07T03:28:06;149604.72;;;9.37;100.00
6599;BME280;3335;43.198;27.918;2022-12-07T03:30:39;149617.19;;;9.42;100.00
6599;BME280;3335;43.198;27.918;2022-12-07T03:33:10;149620.97;;;9.43;100.00
6599;BME280;3335;43.198;27.918;2022-12-07T03:35:40;149613.50;;;9.40;100.00
6599;BME280;3335;43.198;27.918;2022-12-07T03:38:13;149561.06;;;9.19;100.00
6599;BME280;3335;43.198;27.918;2022-12-07T03:40:47;149609.72;;;9.39;100.00
6599;BME280;3335;43.198;27.918;2022-12-07T03:43:17;149604.72;;;9.37;100.00
6599;BME280;3335;43.198;27.918;2022-12-07T03:45:53;149607.22;;;9.38;100.00
6599;BME280;3335;43.198;27.918;2022-12-07T03:48:28;149591.03;;;9.31;100.00
6599;BME280;3335;43.198;27.918;2022-12-07T03:51:06;149588.53;;;9.30;100.00
6599;BME280;3335;43.198;27.918;2022-12-07T03:53:40;149572.28;;;9.23;100.00
6599;BME280;3335;43.198;27.918;2022-12-07T03:56:09;149583.50;;;9.28;100.00
6599;BME280;3335;43.198;27.918;2022-12-07T03:58:38;149605.97;;;9.37;100.00
6599;BME280;3335;43.198;27.918;2022-12-07T04:01:07;149601.00;;;9.35;100.00
6599;BME280;3335;43.198;27.918;2022-12-07T04:03:34;149577.28;;;9.26;100.00
6599;BME280;3335;43.198;27.918;2022-12-07T04:06:01;149573.53;;;9.24;100.00
6599;BME280;3335;43.198;27.918;2022-12-07T04:08:28;149566.06;;;9.21;100.00
6599;BME280;3335;43.198;27.918;2022-12-07T04:10:55;149247.94;;;7.92;100.00
6599;BME280;3335;43.198;27.918;2022-12-07T04:13:22;149563.56;;;9.20;100.00
6599;BME280;3335;43.198;27.918;2022-12-07T04:15:49;149571.03;;;9.23;100.00
6599;BME280;3335;43.198;27.918;2022-12-07T04:18:17;149578.53;;;9.26;100.00
6599;BME280;3335;43.198;27.918;2022-12-07T04:20:45;149587.25;;;9.30;100.00
6599;BME280;3335;43.198;27.918;2022-12-07T04:23:12;149598.50;;;9.34;100.00
6599;BME280;3335;43.198;27.918;2022-12-07T04:25:40;149578.53;;;9.26;100.00
6599;BME280;3335;43.198;27.918;2022-12-07T04:28:07;149568.53;;;9.22;100.00
6599;BME280;3335;43.198;27.918;2022-12-07T04:30:34;149471.22;;;8.83;100.00
6599;BME280;3335;43.198;27.918;2022-12-07T04:33:01;149556.09;;;9.17;100.00
6599;BME280;3335;43.198;27.918;2022-12-07T04:35:29;149533.59;;;9.08;100.00
6599;BME280;3335;43.198;27.918;2022-12-07T04:37:56;149543.59;;;9.12;100.00
6599;BME280;3335;43.198;27.918;2022-12-07T04:40:23;149546.06;;;9.13;100.00
6599;BME280;3335;43.198;27.918;2022-12-07T04:42:50;149533.59;;;9.08;100.00
6599;BME280;3335;43.198;27.918;2022-12-07T04:45:17;149521.09;;;9.03;100.00
6599;BME280;3335;43.198;27.918;2022-12-07T04:47:44;149546.06;;;9.13;100.00
6599;BME280;3335;43.198;27.918;2022-12-07T04:50:11;149514.88;;;9.00;100.00
6599;BME280;3335;43.198;27.918;2022-12-07T04:52:39;149503.66;;;8.96;100.00
6599;BME280;3335;43.198;27.918;2022-12-07T04:55:06;149494.94;;;8.92;100.00
6599;BME280;3335;43.198;27.918;2022-12-07T04:57:33;149479.94;;;8.86;100.00
6599;BME280;3335;43.198;27.918;2022-12-07T05:00:00;149458.75;;;8.77;100.00
6599;BME280;3335;43.198;27.918;2022-12-07T05:02:27;149487.41;;;8.89;100.00
6599;BME280;3335;43.198;27.918;2022-12-07T05:04:54;149492.44;;;8.91;100.00
6599;BME280;3335;43.198;27.918;2022-12-07T05:07:21;149483.72;;;8.88;100.00
6599;BME280;3335;43.198;27.918;2022-12-07T05:09:50;149488.66;;;8.90;100.00
6599;BME280;3335;43.198;27.918;2022-12-07T05:12:17;149481.22;;;8.87;100.00
6599;BME280;3335;43.198;27.918;2022-12-07T05:14:44;149463.72;;;8.79;100.00
6599;BME280;3335;43.198;27.918;2022-12-07T05:17:11;149440.00;;;8.70;100.00
6599;BME280;3335;43.198;27.918;2022-12-07T05:19:37;149466.22;;;8.81;100.00
6599;BME280;3335;43.198;27.918;2022-12-07T05:22:05;149455.00;;;8.76;100.00
6599;BME280;3335;43.198;27.918;2022-12-07T05:24:31;149430.03;;;8.66;100.00
6599;BME280;3335;43.198;27.918;2022-12-07T05:27:00;149448.78;;;8.73;100.00
6599;BME280;3335;43.198;27.918;2022-12-07T05:29:27;149452.50;;;8.75;100.00
6599;BME280;3335;43.198;27.918;2022-12-07T05:31:54;149441.25;;;8.70;100.00
6599;BME280;3335;43.198;27.918;2022-12-07T05:34:21;149443.78;;;8.71;100.00
6599;BME280;3335;43.198;27.918;2022-12-07T05:36:47;149435.06;;;8.68;100.00
6599;BME280;3335;43.198;27.918;2022-12-07T05:39:15;149416.31;;;8.60;100.00
6599;BME280;3335;43.198;27.918;2022-12-07T05:41:42;149393.88;;;8.51;100.00
6599;BME280;3335;43.198;27.918;2022-12-07T05:44:28;149411.34;;;8.58;100.00
6599;BME280;3335;43.198;27.918;2022-12-07T05:46:55;149406.34;;;8.56;100.00
6599;BME280;3335;43.198;27.918;2022-12-07T05:49:22;149388.91;;;8.49;100.00
6599;BME280;3335;43.198;27.918;2022-12-07T05:51:49;149327.75;;;8.24;100.00
6599;BME280;3335;43.198;27.918;2022-12-07T05:54:16;149370.16;;;8.42;100.00
6599;BME280;3335;43.198;27.918;2022-12-07T05:56:43;149344.00;;;8.31;100.00
6599;BME280;3335;43.198;27.918;2022-12-07T05:59:10;149276.59;;;8.04;100.00
6599;BME280;3335;43.198;27.918;2022-12-07T06:01:49;149336.44;;;8.28;100.00
6599;BME280;3335;43.198;27.918;2022-12-07T06:04:16;149351.47;;;8.34;100.00
6599;BME280;3335;43.198;27.918;2022-12-07T06:06:43;149342.75;;;8.30;100.00
6599;BME280;3335;43.198;27.918;2022-12-07T06:09:11;149406.34;;;8.56;100.00
6599;BME280;3335;43.198;27.918;2022-12-07T06:11:38;149428.78;;;8.65;100.00
6599;BME280;3335;43.198;27.918;2022-12-07T06:14:23;149376.44;;;8.44;100.00
6599;BME280;3335;43.198;27.918;2022-12-07T06:16:51;149366.47;;;8.40;100.00
6599;BME280;3335;43.198;27.918;2022-12-07T06:19:18;149371.41;;;8.42;100.00
6599;BME280;3335;43.198;27.918;2022-12-07T06:21:45;149373.94;;;8.43;100.00
6599;BME280;3335;43.198;27.918;2022-12-07T06:24:13;149366.47;;;8.40;100.00
6599;BME280;3335;43.198;27.918;2022-12-07T06:26:40;149371.41;;;8.42;100.00
6599;BME280;3335;43.198;27.918;2022-12-07T06:29:07;149375.19;;;8.44;100.00
6599;BME280;3335;43.198;27.918;2022-12-07T06:31:35;149378.94;;;8.45;100.00
6599;BME280;3335;43.198;27.918;2022-12-07T06:34:06;149386.41;;;8.48;100.00
6599;BME280;3335;43.198;27.918;2022-12-07T06:36:33;149390.16;;;8.50;100.00
6599;BME280;3335;43.198;27.918;2022-12-07T06:39:00;149388.91;;;8.49;100.00
6599;BME280;3335;43.198;27.918;2022-12-07T06:41:27;149371.41;;;8.42;100.00
6599;BME280;3335;43.198;27.918;2022-12-07T06:43:54;149375.19;;;8.44;100.00
6599;BME280;3335;43.198;27.918;2022-12-07T06:46:21;149385.16;;;8.48;100.00
6599;BME280;3335;43.198;27.918;2022-12-07T06:48:48;149398.88;;;8.53;100.00
6599;BME280;3335;43.198;27.918;2022-12-07T06:51:17;149411.34;;;8.58;100.00
6599;BME280;3335;43.198;27.918;2022-12-07T06:53:45;149378.94;;;8.45;100.00
6599;BME280;3335;43.198;27.918;2022-12-07T06:56:12;149455.00;;;8.76;100.00
6599;BME280;3335;43.198;27.918;2022-12-07T06:58:39;149453.75;;;8.75;100.00
6599;BME280;3335;43.198;27.918;2022-12-07T07:01:09;149413.84;;;8.59;100.00
6599;BME280;3335;43.198;27.918;2022-12-07T07:03:37;149516.13;;;9.01;100.00
6599;BME280;3335;43.198;27.918;2022-12-07T07:06:05;149526.13;;;9.05;100.00
6599;BME280;3335;43.198;27.918;2022-12-07T07:08:34;149518.63;;;9.02;100.00
6599;BME280;3335;43.198;27.918;2022-12-07T07:11:02;149546.06;;;9.13;100.00
6599;BME280;3335;43.198;27.918;2022-12-07T07:13:29;149566.06;;;9.21;100.00
6599;BME280;3335;43.198;27.918;2022-12-07T07:15:56;149516.13;;;9.01;100.00
6599;BME280;3335;43.198;27.918;2022-12-07T07:18:23;149588.53;;;9.30;100.00
6599;BME280;3335;43.198;27.918;2022-12-07T07:20:50;149642.16;;;9.52;100.00
6599;BME280;3335;43.198;27.918;2022-12-07T07:23:18;149642.16;;;9.52;100.00
6599;BME280;3335;43.198;27.918;2022-12-07T07:25:46;149660.91;;;9.59;100.00
6599;BME280;3335;43.198;27.918;2022-12-07T07:28:14;149650.91;;;9.55;100.00
6599;BME280;3335;43.198;27.918;2022-12-07T07:30:41;149554.84;;;9.16;100.00
6599;BME280;3335;43.198;27.918;2022-12-07T07:33:09;149625.97;;;9.45;100.00
6599;BME280;3335;43.198;27.918;2022-12-07T07:35:36;149532.38;;;9.07;100.00
6599;BME280;3335;43.198;27.918;2022-12-07T07:38:04;149688.34;;;9.71;100.00
6599;BME280;3335;43.198;27.918;2022-12-07T07:40:31;149713.34;;;9.81;100.00
6599;BME280;3335;43.198;27.918;2022-12-07T07:43:00;149740.81;;;9.92;100.00
6599;BME280;3335;43.198;27.918;2022-12-07T07:45:27;149695.88;;;9.74;100.00
6599;BME280;3335;43.198;27.918;2022-12-07T07:47:54;149738.31;;;9.91;100.00
6599;BME280;3335;43.198;27.918;2022-12-07T07:50:22;149778.28;;;10.07;100.00
6599;BME280;3335;43.198;27.918;2022-12-07T07:52:49;149775.78;;;10.06;100.00
6599;BME280;3335;43.198;27.918;2022-12-07T07:55:16;149809.53;;;10.20;100.00
6599;BME280;3335;43.198;27.918;2022-12-07T07:57:43;149825.78;;;10.26;100.00
6599;BME280;3335;43.198;27.918;2022-12-07T08:00:13;149785.75;;;10.10;100.00
6599;BME280;3335;43.198;27.918;2022-12-07T08:02:41;149815.75;;;10.22;100.00
6599;BME280;3335;43.198;27.918;2022-12-07T08:05:10;149843.25;;;10.33;100.00
6599;BME280;3335;43.198;27.918;2022-12-07T08:07:37;149850.72;;;10.36;100.00
6599;BME280;3335;43.198;27.918;2022-12-07T08:10:05;149857.00;;;10.39;100.00
6599;BME280;3335;43.198;27.918;2022-12-07T08:12:36;149822.03;;;10.25;100.00
6599;BME280;3335;43.198;27.918;2022-12-07T08:15:25;149850.72;;;10.36;100.00
6599;BME280;3335;43.198;27.918;2022-12-07T08:17:52;149885.69;;;10.50;100.00
6599;BME280;3335;43.198;27.918;2022-12-07T08:20:19;149890.72;;;10.52;100.00
6599;BME280;3335;43.198;27.918;2022-12-07T08:22:46;149883.25;;;10.49;100.00
6599;BME280;3335;43.198;27.918;2022-12-07T08:25:13;149914.44;;;10.62;100.00
6599;BME280;3335;43.198;27.918;2022-12-07T08:27:40;149923.19;;;10.66;100.00
6599;BME280;3335;43.198;27.918;2022-12-07T08:30:08;149938.19;;;10.72;100.00
6599;BME280;3335;43.198;27.918;2022-12-07T08:32:36;149958.16;;;10.80;100.00
6599;BME280;3335;43.198;27.918;2022-12-07T08:35:03;149968.16;;;10.84;100.00
6599;BME280;3335;43.198;27.918;2022-12-07T08:37:31;149990.63;;;10.93;100.00
6599;BME280;3335;43.198;27.918;2022-12-07T08:39:58;150013.16;;;11.02;100.00
6599;BME280;3335;43.198;27.918;2022-12-07T08:42:25;150040.63;;;11.13;100.00
6599;BME280;3335;43.198;27.918;2022-12-07T08:44:55;150075.63;;;11.27;100.00
6599;BME280;3335;43.198;27.918;2022-12-07T08:47:23;150106.91;;;11.40;100.00
6599;BME280;3335;43.198;27.918;2022-12-07T08:49:53;150155.63;;;11.60;100.00
6599;BME280;3335;43.198;27.918;2022-12-07T08:52:20;150168.13;;;11.65;100.00
6599;BME280;3335;43.198;27.918;2022-12-07T08:54:47;150181.88;;;11.70;100.00
6599;BME280;3335;43.198;27.918;2022-12-07T08:57:15;150226.94;;;11.89;100.00
6599;BME280;3335;43.198;27.918;2022-12-07T08:59:42;150270.75;;;12.06;100.00
6599;BME280;3335;43.198;27.918;2022-12-07T09:02:09;150275.72;;;12.08;100.00
6599;BME280;3335;43.198;27.918;2022-12-07T09:04:36;150270.75;;;12.06;100.00
6599;BME280;3335;43.198;27.918;2022-12-07T09:07:04;150263.22;;;12.03;100.00
6599;BME280;3335;43.198;27.918;2022-12-07T09:09:32;150245.72;;;11.96;100.00
6599;BME280;3335;43.198;27.918;2022-12-07T09:11:59;150270.75;;;12.06;100.00
6599;BME280;3335;43.198;27.918;2022-12-07T09:14:26;150010.66;;;11.01;100.00
6599;BME280;3335;43.198;27.918;2022-12-07T09:16:53;150274.47;;;12.08;100.00
6599;BME280;3335;43.198;27.918;2022-12-07T09:19:20;150266.97;;;12.05;100.00
6599;BME280;3335;43.198;27.918;2022-12-07T09:21:47;150275.72;;;12.08;100.00
6599;BME280;3335;43.198;27.918;2022-12-07T09:24:15;150254.47;;;12.00;100.00
6599;BME280;3335;43.198;27.918;2022-12-07T09:26:42;150278.22;;;12.09;100.00
6599;BME280;3335;43.198;27.918;2022-12-07T09:29:09;150311.97;;;12.23;100.00
6599;BME280;3335;43.198;27.918;2022-12-07T09:31:36;150288.22;;;12.13;100.00
6599;BME280;3335;43.198;27.918;2022-12-07T09:34:04;150278.22;;;12.09;100.00
6599;BME280;3335;43.198;27.918;2022-12-07T09:36:31;150246.97;;;11.97;100.00
6599;BME280;3335;43.198;27.918;2022-12-07T09:38:58;150260.69;;;12.02;100.00
6599;BME280;3335;43.198;27.918;2022-12-07T09:41:28;150273.19;;;12.07;100.00
6599;BME280;3335;43.198;27.918;2022-12-07T09:44:03;150245.72;;;11.96;100.00
6599;BME280;3335;43.198;27.918;2022-12-07T09:46:34;150253.22;;;11.99;100.00
6599;BME280;3335;43.198;27.918;2022-12-07T09:49:03;150218.19;;;11.85;100.00
6599;BME280;3335;43.198;27.918;2022-12-07T09:51:31;150215.69;;;11.84;100.00
6599;BME280;3335;43.198;27.918;2022-12-07T09:53:59;150245.72;;;11.96;100.00
6599;BME280;3335;43.198;27.918;2022-12-07T09:56:30;150260.69;;;12.02;100.00
6599;BME280;3335;43.198;27.918;2022-12-07T09:58:59;150274.47;;;12.08;100.00
6599;BME280;3335;43.198;27.918;2022-12-07T10:01:29;150280.72;;;12.10;100.00
6599;BME280;3335;43.198;27.918;2022-12-07T10:04:02;150295.72;;;12.16;100.00
6599;BME280;3335;43.198;27.918;2022-12-07T10:06:33;150298.22;;;12.17;100.00
6599;BME280;3335;43.198;27.918;2022-12-07T10:09:00;150272.00;;;12.07;100.00
6599;BME280;3335;43.198;27.918;2022-12-07T10:11:29;150236.97;;;11.93;100.00
6599;BME280;3335;43.198;27.918;2022-12-07T10:14:10;150270.75;;;12.06;100.00
6599;BME280;3335;43.198;27.918;2022-12-07T10:16:39;150269.47;;;12.06;100.00
6599;BME280;3335;43.198;27.918;2022-12-07T10:19:22;150333.25;;;12.32;100.00
6599;BME280;3335;43.198;27.918;2022-12-07T10:22:10;150357.00;;;12.41;100.00
6599;BME280;3335;43.198;27.918;2022-12-07T10:24:37;150395.81;;;12.57;100.00
6599;BME280;3335;43.198;27.918;2022-12-07T10:27:19;150400.84;;;12.59;100.00
6599;BME280;3335;43.198;27.918;2022-12-07T10:29:48;150389.56;;;12.54;100.00
6599;BME280;3335;43.198;27.918;2022-12-07T10:32:31;150440.84;;;12.75;100.00
6599;BME280;3335;43.198;27.918;2022-12-07T10:35:23;150437.06;;;12.73;100.00
6599;BME280;3335;43.198;27.918;2022-12-07T10:37:51;150468.38;;;12.86;100.00
6599;BME280;3335;43.198;27.918;2022-12-07T10:40:31;150105.66;;;11.39;100.00
6599;BME280;3335;43.198;27.918;2022-12-07T10:43:17;150430.84;;;12.71;100.00
6599;BME280;3335;43.198;27.918;2022-12-07T10:46:05;150423.34;;;12.68;100.00
6599;BME280;3335;43.198;27.918;2022-12-07T10:48:45;150438.31;;;12.74;100.00
6599;BME280;3335;43.198;27.918;2022-12-07T10:51:23;150433.34;;;12.72;100.00
6599;BME280;3335;43.198;27.918;2022-12-07T10:54:02;150463.34;;;12.84;100.00
6599;BME280;3335;43.198;27.918;2022-12-07T10:56:52;150490.91;;;12.95;100.00
6599;BME280;3335;43.198;27.918;2022-12-07T10:59:41;150459.63;;;12.83;100.00
6599;BME280;3335;43.198;27.918;2022-12-07T11:02:24;150494.66;;;12.97;100.00
6599;BME280;3335;43.198;27.918;2022-12-07T11:05:02;150523.44;;;13.08;100.00
6599;BME280;3335;43.198;27.918;2022-12-07T11:07:42;150537.25;;;13.14;100.00
6599;BME280;3335;43.198;27.918;2022-12-07T11:10:15;150551.03;;;13.20;100.00
6599;BME280;3335;43.198;27.918;2022-12-07T11:13:02;150549.78;;;13.19;100.00
6599;BME280;3335;43.198;27.918;2022-12-07T11:15:39;150558.50;;;13.23;100.00
6599;BME280;3335;43.198;27.918;2022-12-07T11:18:14;150556.00;;;13.22;100.00
6599;BME280;3335;43.198;27.918;2022-12-07T11:20:54;150579.78;;;13.31;100.00
6599;BME280;3335;43.198;27.918;2022-12-07T11:23:30;150549.78;;;13.19;100.00
6599;BME280;3335;43.198;27.918;2022-12-07T11:26:07;150576.06;;;13.30;100.00
6599;BME280;3335;43.198;27.918;2022-12-07T11:28:49;150517.19;;;13.06;100.00
6599;BME280;3335;43.198;27.918;2022-12-07T11:31:31;150553.53;;;13.21;100.00
6599;BME280;3335;43.198;27.918;2022-12-07T11:34:04;150586.06;;;13.34;100.00
6599;BME280;3335;43.198;27.918;2022-12-07T11:36:37;150587.31;;;13.34;100.00
6599;BME280;3335;43.198;27.918;2022-12-07T11:39:15;150608.59;;;13.43;100.00
6599;BME280;3335;43.198;27.918;2022-12-07T11:41:48;150628.63;;;13.51;100.00
6599;BME280;3335;43.198;27.918;2022-12-07T11:44:25;150651.16;;;13.60;100.00
6599;BME280;3335;43.198;27.918;2022-12-07T11:46:58;150644.91;;;13.57;100.00
6599;BME280;3335;43.198;27.918;2022-12-07T11:49:40;150628.63;;;13.51;100.00
6599;BME280;3335;43.198;27.918;2022-12-07T11:52:16;150651.16;;;13.60;100.00
6599;BME280;3335;43.198;27.918;2022-12-07T11:54:47;150696.22;;;13.78;100.00
6599;BME280;3335;43.198;27.918;2022-12-07T11:57:20;150696.22;;;13.78;100.00
6599;BME280;3335;43.198;27.918;2022-12-07T11:59:53;150646.16;;;13.58;100.00
6599;BME280;3335;43.198;27.918;2022-12-07T12:02:32;150647.41;;;13.58;100.00
6599;BME280;3335;43.198;27.918;2022-12-07T12:05:07;150653.66;;;13.61;100.00
6599;BME280;3335;43.198;27.918;2022-12-07T12:07:39;150646.16;;;13.58;100.00
6599;BME280;3335;43.198;27.918;2022-12-07T12:10:17;150633.66;;;13.53;100.00
6599;BME280;3335;43.198;27.918;2022-12-07T12:13:13;150586.06;;;13.34;100.00
6599;BME280;3335;43.198;27.918;2022-12-07T12:15:58;150553.53;;;13.21;100.00
6599;BME280;3335;43.198;27.918;2022-12-07T12:18:45;150576.06;;;13.30;100.00
6599;BME280;3335;43.198;27.918;2022-12-07T12:21:17;150587.31;;;13.34;100.00
6599;BME280;3335;43.198;27.918;2022-12-07T12:23:48;150549.78;;;13.19;100.00
6599;BME280;3335;43.198;27.918;2022-12-07T12:26:20;150552.28;;;13.20;100.00
6599;BME280;3335;43.198;27.918;2022-12-07T12:28:53;150536.00;;;13.13;100.00
6599;BME280;3335;43.198;27.918;2022-12-07T12:31:34;150533.47;;;13.12;100.00
6599;BME280;3335;43.198;27.918;2022-12-07T12:34:33;150490.91;;;12.95;100.00
6599;BME280;3335;43.198;27.918;2022-12-07T12:37:00;150541.03;;;13.16;100.00
6599;BME280;3335;43.198;27.918;2022-12-07T12:39:27;150541.03;;;13.16;100.00
6599;BME280;3335;43.198;27.918;2022-12-07T12:41:58;150549.78;;;13.19;100.00
6599;BME280;3335;43.198;27.918;2022-12-07T12:44:43;150557.25;;;13.22;100.00
6599;BME280;3335;43.198;27.918;2022-12-07T12:48:02;150571.03;;;13.28;100.00
6599;BME280;3335;43.198;27.918;2022-12-07T12:50:32;150566.06;;;13.26;100.00
6599;BME280;3335;43.198;27.918;2022-12-07T12:53:15;150566.06;;;13.26;100.00
6599;BME280;3335;43.198;27.918;2022-12-07T12:56:21;150588.59;;;13.35;100.00
6599;BME280;3335;43.198;27.918;2022-12-07T12:59:24;150601.09;;;13.40;100.00
6599;BME280;3335;43.198;27.918;2022-12-07T13:01:54;150589.78;;;13.35;100.00
6599;BME280;3335;43.198;27.918;2022-12-07T13:10:28;150556.00;;;13.22;100.00
6599;BME280;3335;43.198;27.918;2022-12-07T13:12:59;150459.63;;;12.83;100.00
6599;BME280;3335;43.198;27.918;2022-12-07T13:15:35;150448.38;;;12.78;100.00
6599;BME280;3335;43.198;27.918;2022-12-07T13:18:21;150448.38;;;12.78;100.00
6599;BME280;3335;43.198;27.918;2022-12-07T13:20:54;150438.31;;;12.74;100.00
6599;BME280;3335;43.198;27.918;2022-12-07T13:23:32;150470.91;;;12.87;100.00